createdAt,value
2022-11-05T00:07:08.794Z,0
2022-11-05T00:17:08.919Z,0
2022-11-05T00:27:09.812Z,0
2022-11-05T00:37:08.937Z,0
2022-11-05T00:47:08.831Z,0
2022-11-05T00:57:08.951Z,0
2022-11-05T01:07:08.982Z,0
2022-11-05T01:17:08.895Z,0
2022-11-05T01:27:08.974Z,0
2022-11-05T01:37:08.891Z,0
2022-11-05T01:47:08.976Z,0
2022-11-05T01:57:08.901Z,0
2022-11-05T02:07:09.001Z,0
2022-11-05T02:17:08.920Z,0
2022-11-05T02:27:08.963Z,0
2022-11-05T02:37:09.085Z,0
2022-11-05T02:47:11.011Z,0
2022-11-05T02:57:09.091Z,0
2022-11-05T03:07:08.952Z,0
2022-11-05T03:17:09.071Z,0
2022-11-05T03:27:08.954Z,0
2022-11-05T03:37:09.166Z,0
2022-11-05T03:47:09.184Z,0
2022-11-05T03:57:09.066Z,0
2022-11-05T04:07:09.136Z,0
2022-11-05T04:17:09.201Z,0
2022-11-05T04:27:09.139Z,0
2022-11-05T04:37:09.054Z,0
2022-11-05T04:47:09.133Z,0
2022-11-05T04:57:09.071Z,0
2022-11-05T05:07:09.164Z,0
2022-11-05T05:17:09.106Z,0
2022-11-05T05:27:09.142Z,0
2022-11-05T05:37:09.258Z,0
2022-11-05T05:47:09.127Z,0
2022-11-05T05:57:09.245Z,0
2022-11-05T06:07:09.156Z,0
2022-11-05T06:17:09.257Z,0
2022-11-05T06:27:09.118Z,0
2022-11-05T06:37:09.244Z,0
2022-11-05T06:47:09.321Z,0
2022-11-05T06:57:09.244Z,0
2022-11-05T07:07:09.320Z,0
2022-11-05T07:17:09.260Z,0
2022-11-05T07:27:09.323Z,0
2022-11-05T07:37:09.242Z,0
2022-11-05T07:47:09.321Z,0
2022-11-05T07:57:09.327Z,0
2022-11-05T08:07:09.344Z,0
2022-11-05T08:17:10.744Z,4
2022-11-05T08:27:09.311Z,0
2022-11-05T08:37:09.452Z,0
2022-11-05T08:47:09.299Z,2
2022-11-05T08:57:09.426Z,0
2022-11-05T09:07:09.299Z,1
2022-11-05T09:17:09.423Z,3
2022-11-05T09:27:09.299Z,8
2022-11-05T09:37:09.411Z,8
2022-11-05T09:47:09.490Z,3
2022-11-05T09:57:09.452Z,5
2022-11-05T10:07:09.510Z,2
2022-11-05T10:17:09.411Z,2
2022-11-05T10:27:09.482Z,1
2022-11-05T10:37:09.591Z,3
2022-11-05T10:47:09.604Z,3
2022-11-05T10:57:09.465Z,0
2022-11-05T11:07:09.521Z,3
2022-11-05T11:17:09.441Z,0
2022-11-05T11:27:09.520Z,0
2022-11-05T11:37:12.894Z,2
2022-11-05T11:47:10.550Z,3
2022-11-05T11:57:14.248Z,1
2022-11-05T12:07:09.522Z,2
2022-11-05T12:17:09.802Z,0
2022-11-05T12:27:10.751Z,4
2022-11-05T12:37:09.903Z,7
2022-11-05T12:47:10.511Z,3
2022-11-05T12:57:10.242Z,4
2022-11-05T13:07:10.495Z,5
2022-11-05T13:17:10.683Z,0
2022-11-05T13:27:10.562Z,2
2022-11-05T13:37:09.641Z,0
2022-11-05T13:47:09.717Z,0
2022-11-05T13:57:09.604Z,0
2022-11-05T14:07:09.689Z,0
2022-11-05T14:17:09.697Z,0
2022-11-05T14:27:09.728Z,0
2022-11-05T14:37:10.181Z,3
2022-11-05T14:47:09.689Z,8
2022-11-05T14:57:09.811Z,6
2022-11-05T15:07:09.660Z,0
2022-11-05T15:17:09.814Z,0
2022-11-05T15:27:09.660Z,0
2022-11-05T15:37:09.841Z,0
2022-11-05T15:47:09.890Z,0
2022-11-05T15:57:09.782Z,0
2022-11-05T16:07:09.733Z,0
2022-11-05T16:17:09.859Z,0
2022-11-05T16:27:09.706Z,0
2022-11-05T16:37:09.837Z,0
2022-11-05T16:47:09.904Z,0
2022-11-05T16:57:09.854Z,0
2022-11-05T17:07:09.928Z,0
2022-11-05T17:17:09.827Z,0
2022-11-05T17:27:09.896Z,0
2022-11-05T17:37:09.819Z,0
2022-11-05T17:47:09.888Z,0
2022-11-05T17:57:09.835Z,0
2022-11-05T18:07:09.903Z,0
2022-11-05T18:17:10.115Z,0
2022-11-05T18:27:09.894Z,0
2022-11-05T18:37:10.037Z,0
2022-11-05T18:47:09.921Z,0
2022-11-05T18:57:10.050Z,0
2022-11-05T19:07:09.917Z,0
2022-11-05T19:17:10.072Z,0
2022-11-05T19:27:09.940Z,0
2022-11-05T19:37:10.071Z,0
2022-11-05T19:47:09.899Z,0
2022-11-05T19:57:10.029Z,0
2022-11-05T20:07:10.101Z,0
2022-11-05T20:17:10.053Z,0
2022-11-05T20:27:10.102Z,0
2022-11-05T20:37:10.146Z,0
2022-11-05T20:47:10.122Z,0
2022-11-05T20:57:10.035Z,0
2022-11-05T21:07:10.092Z,0
2022-11-05T21:17:10.025Z,0
2022-11-05T21:27:10.085Z,0
2022-11-05T21:37:10.290Z,0
2022-11-05T21:47:10.079Z,0
2022-11-05T21:57:11.006Z,0
2022-11-05T22:07:10.106Z,0
2022-11-05T22:17:10.229Z,0
2022-11-05T22:27:10.093Z,0
2022-11-05T22:37:10.195Z,0
2022-11-05T22:47:10.270Z,0
2022-11-05T22:57:10.188Z,0
2022-11-05T23:07:10.266Z,0
2022-11-05T23:17:10.189Z,0
2022-11-05T23:27:10.253Z,0
2022-11-05T23:37:10.177Z,0
2022-11-05T23:47:10.316Z,0
2022-11-05T23:57:10.212Z,0
